createdAt,value
2022-11-13T00:03:29.162Z,8
2022-11-13T00:08:53.840Z,8
2022-11-13T00:14:20.838Z,8
2022-11-13T00:19:44.379Z,8
2022-11-13T00:25:21.868Z,8.1
2022-11-13T00:30:35.230Z,8.1
2022-11-13T00:37:04.261Z,8.1
2022-11-13T00:42:32.037Z,8.2
2022-11-13T00:47:53.748Z,8.2
2022-11-13T00:53:18.286Z,8.2
2022-11-13T00:58:24.916Z,8.2
2022-11-13T01:03:31.996Z,8.3
2022-11-13T01:08:55.277Z,8.3
2022-11-13T01:14:19.567Z,8.3
2022-11-13T01:19:25.401Z,8.3
2022-11-13T01:24:33.589Z,8.3
2022-11-13T01:29:40.847Z,8.4
2022-11-13T01:35:18.376Z,8.3
2022-11-13T01:40:56.959Z,8.4
2022-11-13T01:46:19.126Z,8.4
2022-11-13T01:51:40.819Z,8.4
2022-11-13T01:57:04.087Z,8.4
2022-11-13T02:02:42.831Z,8.4
2022-11-13T02:08:20.439Z,8.4
2022-11-13T02:13:59.163Z,8.4
2022-11-13T02:19:22.272Z,8.4
2022-11-13T02:25:01.725Z,8.4
2022-11-13T02:30:29.377Z,8.4
2022-11-13T02:35:36.351Z,8.4
2022-11-13T02:40:41.990Z,8.4
2022-11-13T02:46:04.609Z,8.4
2022-11-13T02:51:42.471Z,8.4
2022-11-13T02:57:25.630Z,8.4
2022-11-13T03:03:06.600Z,8.4
2022-11-13T03:09:30.970Z,8.4
2022-11-13T03:14:53.180Z,8.5
2022-11-13T03:20:15.695Z,8.5
2022-11-13T03:25:43.900Z,8.4
2022-11-13T03:31:05.288Z,8.5
2022-11-13T03:36:03.115Z,8.5
2022-11-13T03:41:24.861Z,8.5
2022-11-13T03:47:02.878Z,8.5
2022-11-13T03:52:46.998Z,8.5
2022-11-13T03:58:25.121Z,8.6
2022-11-13T04:04:08.543Z,8.6
2022-11-13T04:09:33.645Z,8.6
2022-11-13T04:15:11.790Z,8.6
2022-11-13T04:20:49.529Z,8.6
2022-11-13T04:26:26.977Z,8.7
2022-11-13T04:32:04.378Z,8.7
2022-11-13T04:37:42.117Z,8.7
2022-11-13T04:43:07.444Z,8.7
2022-11-13T04:48:46.145Z,8.8
2022-11-13T04:54:28.473Z,8.8
2022-11-13T05:00:06.346Z,8.8
2022-11-13T05:05:28.989Z,8.8
2022-11-13T05:11:07.422Z,8.8
2022-11-13T05:16:31.481Z,8.8
2022-11-13T05:22:09.988Z,8.8
2022-11-13T05:27:51.307Z,8.9
2022-11-13T05:33:29.571Z,8.9
2022-11-13T05:39:10.370Z,8.9
2022-11-13T05:44:33.864Z,8.9
2022-11-13T05:50:12.021Z,9
2022-11-13T05:55:50.408Z,9.1
2022-11-13T06:01:28.178Z,9.1
2022-11-13T06:07:08.585Z,9.2
2022-11-13T06:12:46.553Z,9.3
2022-11-13T06:18:26.593Z,9.3
2022-11-13T06:24:04.940Z,9.4
2022-11-13T06:29:27.594Z,9.6
2022-11-13T06:35:05.664Z,9.6
2022-11-13T06:40:30.252Z,9.8
2022-11-13T06:45:53.067Z,9.9
2022-11-13T06:51:22.109Z,10
2022-11-13T06:56:44.895Z,10.1
2022-11-13T07:02:09.542Z,10.3
2022-11-13T07:07:32.792Z,10.5
2022-11-13T07:13:11.628Z,10.8
2022-11-13T07:19:12.009Z,11
2022-11-13T07:24:51.107Z,11.3
2022-11-13T07:30:19.956Z,11.6
2022-11-13T07:35:57.902Z,11.8
2022-11-13T07:41:05.065Z,12.1
2022-11-13T07:46:55.124Z,12.3
2022-11-13T07:52:25.666Z,12.6
2022-11-13T07:57:36.234Z,12.7
2022-11-13T08:03:01.193Z,12.9
2022-11-13T08:08:25.515Z,13
2022-11-13T08:13:17.548Z,13.1
2022-11-13T08:18:26.173Z,13.3
2022-11-13T08:23:36.200Z,13.5
2022-11-13T08:28:47.816Z,13.8
2022-11-13T08:34:27.149Z,14.1
2022-11-13T08:40:07.643Z,14.6
2022-11-13T08:45:45.222Z,15.2
2022-11-13T08:51:29.394Z,15.8
2022-11-13T08:56:56.102Z,16.1
2022-11-13T09:02:34.896Z,16.4
2022-11-13T09:08:18.130Z,16.6
2022-11-13T09:14:00.953Z,16.8
2022-11-13T09:19:24.883Z,17.1
2022-11-13T09:24:56.529Z,17.5
2022-11-13T09:30:29.534Z,17.8
2022-11-13T09:35:52.321Z,18.2
2022-11-13T09:41:22.403Z,18.8
2022-11-13T09:46:35.976Z,19.4
2022-11-13T09:52:01.641Z,20.4
2022-11-13T09:57:43.264Z,21.7
2022-11-13T10:03:05.420Z,22.9
2022-11-13T10:09:20.065Z,26
2022-11-13T10:14:58.673Z,28.2
2022-11-13T10:20:21.101Z,29.6
2022-11-13T10:26:16.932Z,30.8
2022-11-13T10:31:47.676Z,31.6
2022-11-13T10:37:10.034Z,32.4
2022-11-13T10:42:55.308Z,32.9
2022-11-13T10:48:54.605Z,33.5
2022-11-13T10:54:17.615Z,34.4
2022-11-13T10:59:42.337Z,34.8
2022-11-13T11:05:06.026Z,35.4
2022-11-13T11:11:20.063Z,37.1
2022-11-13T11:17:03.425Z,38.8
2022-11-13T11:22:41.533Z,38.8
2022-11-13T11:28:22.110Z,38.1
2022-11-13T11:33:59.469Z,37.3
2022-11-13T11:39:22.628Z,36.1
2022-11-13T11:45:00.553Z,35
2022-11-13T11:50:29.975Z,34.1
2022-11-13T11:56:08.418Z,33
2022-11-13T12:01:46.569Z,31.8
2022-11-13T12:07:09.536Z,31.1
2022-11-13T12:12:47.731Z,30.3
2022-11-13T12:18:10.773Z,29.6
2022-11-13T12:23:48.940Z,28.9
2022-11-13T12:29:31.636Z,28.9
2022-11-13T12:35:13.259Z,29.1
2022-11-13T12:40:54.023Z,30.4
2022-11-13T12:46:16.907Z,31
2022-11-13T12:51:45.540Z,31.4
2022-11-13T12:56:53.232Z,32.8
2022-11-13T13:03:07.609Z,35.9
2022-11-13T13:08:46.117Z,37.2
2022-11-13T13:14:13.962Z,37.1
2022-11-13T13:19:21.664Z,37.1
2022-11-13T13:24:13.106Z,36.8
2022-11-13T13:29:35.666Z,37.3
2022-11-13T13:34:51.838Z,37.6
2022-11-13T13:40:04.975Z,37.9
2022-11-13T13:45:43.675Z,37.8
2022-11-13T13:50:51.900Z,37.6
2022-11-13T13:56:21.503Z,37
2022-11-13T14:02:11.528Z,36.1
2022-11-13T14:07:50.693Z,35.1
2022-11-13T14:13:29.139Z,34.1
2022-11-13T14:19:07.020Z,32.9
2022-11-13T14:24:29.996Z,31.6
2022-11-13T14:30:08.192Z,30.2
2022-11-13T14:35:50.231Z,28.8
2022-11-13T14:41:28.927Z,27.4
2022-11-13T14:47:08.226Z,25.9
2022-11-13T14:52:47.092Z,24.4
2022-11-13T14:58:40.837Z,23
2022-11-13T15:03:38.133Z,21.8
2022-11-13T15:08:30.750Z,20.8
2022-11-13T15:13:38.100Z,19.4
2022-11-13T15:18:29.456Z,17.9
2022-11-13T15:24:13.060Z,16
2022-11-13T15:29:37.615Z,14.4
2022-11-13T15:34:28.890Z,13.3
2022-11-13T15:39:57.962Z,12.2
2022-11-13T15:45:21.338Z,11.4
2022-11-13T15:51:07.736Z,10.7
2022-11-13T15:56:33.060Z,10.1
2022-11-13T16:02:16.983Z,9.7
2022-11-13T16:08:03.576Z,9.4
2022-11-13T16:13:11.017Z,9.2
2022-11-13T16:19:00.126Z,8.9
2022-11-13T16:24:24.418Z,8.4
2022-11-13T16:30:33.924Z,8.1
2022-11-13T16:35:56.746Z,7.7
2022-11-13T16:41:18.842Z,7.3
2022-11-13T16:47:03.932Z,7.1
2022-11-13T16:52:42.596Z,6.8
2022-11-13T16:58:20.843Z,6.5
2022-11-13T17:03:51.342Z,6.2
2022-11-13T17:09:34.048Z,5.9
2022-11-13T17:15:37.757Z,5.6
2022-11-13T17:21:00.371Z,5.3
2022-11-13T17:26:39.903Z,5.1
2022-11-13T17:32:02.628Z,4.9
2022-11-13T17:37:41.853Z,4.7
2022-11-13T17:43:21.020Z,4.5
2022-11-13T17:48:34.515Z,4.4
2022-11-13T17:54:03.789Z,4.3
2022-11-13T17:59:45.386Z,4.1
2022-11-13T18:04:52.045Z,4
2022-11-13T18:10:35.203Z,3.9
2022-11-13T18:15:58.758Z,3.7
2022-11-13T18:21:57.424Z,3.5
2022-11-13T18:27:40.358Z,3.4
2022-11-13T18:33:19.464Z,3.2
2022-11-13T18:38:57.775Z,3.1
2022-11-13T18:44:39.060Z,2.9
2022-11-13T18:50:18.476Z,2.8
2022-11-13T18:55:40.569Z,2.7
2022-11-13T19:01:22.047Z,2.6
2022-11-13T19:07:30.521Z,2.5
2022-11-13T19:13:12.556Z,2.4
2022-11-13T19:18:40.609Z,2.3
2022-11-13T19:24:21.724Z,2.2
2022-11-13T19:29:59.300Z,2
2022-11-13T19:35:21.359Z,2
2022-11-13T19:41:02.764Z,1.9
2022-11-13T19:46:41.079Z,1.9
2022-11-13T19:52:03.916Z,1.8
2022-11-13T19:57:45.999Z,1.8
2022-11-13T20:03:08.836Z,1.8
2022-11-13T20:08:32.454Z,1.8
2022-11-13T20:13:39.459Z,1.7
2022-11-13T20:19:17.571Z,1.6
2022-11-13T20:24:55.809Z,1.6
2022-11-13T20:30:23.251Z,1.4
2022-11-13T20:36:00.809Z,1.4
2022-11-13T20:41:44.296Z,1.3
2022-11-13T20:47:22.576Z,1.2
2022-11-13T20:53:04.420Z,1.1
2022-11-13T20:58:31.840Z,1
2022-11-13T21:04:14.838Z,0.9
2022-11-13T21:09:52.430Z,0.8
2022-11-13T21:15:30.659Z,0.8
2022-11-13T21:21:10.014Z,0.7
2022-11-13T21:26:47.555Z,0.6
2022-11-13T21:32:32.383Z,0.4
2022-11-13T21:38:15.161Z,0.4
2022-11-13T21:43:53.759Z,0.3
2022-11-13T21:49:31.622Z,0.2
2022-11-13T21:55:09.882Z,0.1
2022-11-13T22:00:48.736Z,0.1
2022-11-13T22:06:28.812Z,0.1
2022-11-13T22:12:09.804Z,0.2
2022-11-13T22:17:47.073Z,0.3
2022-11-13T22:23:29.035Z,0.2
2022-11-13T22:29:07.355Z,0.4
2022-11-13T22:34:45.882Z,0.3
2022-11-13T22:40:23.231Z,0.3
2022-11-13T22:46:35.827Z,0.2
2022-11-13T22:52:13.881Z,0.1
2022-11-13T22:57:51.922Z,0.1
2022-11-13T23:03:20.933Z,0
2022-11-13T23:08:44.725Z,-0.1
2022-11-13T23:14:23.255Z,-0.1
2022-11-13T23:19:36.883Z,-0.1
2022-11-13T23:25:14.374Z,-0.1
2022-11-13T23:30:40.666Z,-0.3
2022-11-13T23:36:44.794Z,-0.3
2022-11-13T23:42:33.266Z,-0.4
2022-11-13T23:48:41.461Z,-0.5
2022-11-13T23:54:19.852Z,-0.6
2022-11-13T23:59:58.220Z,-0.7
